Time;durP1;ratioP1;P1;durP2;ratioP2;P2;SDS_P1;SDS_P2;PMS_P1;PMS_P2;Temp;Humidity;BMP_temperature;BMP_pressure;BME280_temperature;BME280_humidity;BME280_pressure;Samples;Min_cycle;Max_cycle;Signal;HPM_P1;HPM_P2
2023/06/16 00:00:35;;;;;;;9.80;5.17;;;;;;;17.47;100.00;101065.56;5154818;27;20596;-72
2023/06/16 00:03:01;;;;;;;11.10;5.47;;;;;;;17.34;100.00;101062.75;5154801;27;20434;-73
2023/06/16 00:05:28;;;;;;;13.87;5.70;;;;;;;17.36;100.00;101060.50;5155056;27;20840;-72
2023/06/16 00:07:58;;;;;;;12.03;5.70;;;;;;;17.42;100.00;101060.31;5154780;27;20477;-72
2023/06/16 00:10:24;;;;;;;11.67;4.60;;;;;;;17.33;100.00;101058.44;5154736;27;20437;-73
2023/06/16 00:12:53;;;;;;;15.70;5.13;;;;;;;17.31;100.00;101051.69;5154692;27;20441;-72
2023/06/16 00:15:20;;;;;;;12.43;5.50;;;;;;;17.32;100.00;101048.63;5154610;27;20514;-71
2023/06/16 00:17:49;;;;;;;16.23;6.40;;;;;;;17.27;100.00;101046.09;5154663;27;20529;-72
2023/06/16 00:20:19;;;;;;;11.40;5.53;;;;;;;17.20;100.00;101050.50;5154337;27;20876;-72
2023/06/16 00:22:47;;;;;;;11.57;6.60;;;;;;;17.25;100.00;101048.34;5154640;27;20430;-71
2023/06/16 00:25:15;;;;;;;46.80;6.73;;;;;;;17.26;100.00;101044.47;5154546;27;20465;-72
2023/06/16 00:27:41;;;;;;;9.50;5.37;;;;;;;17.30;100.00;101041.88;5154536;27;20492;-72
2023/06/16 00:30:11;;;;;;;32.83;5.43;;;;;;;17.26;100.00;101036.25;5154247;27;20473;-72
2023/06/16 00:32:38;;;;;;;12.10;4.90;;;;;;;17.15;100.00;101043.28;5154181;27;20474;-72
2023/06/16 00:35:05;;;;;;;7.50;3.93;;;;;;;17.17;100.00;101045.69;5153965;27;20485;-71
2023/06/16 00:37:32;;;;;;;9.37;4.83;;;;;;;17.11;100.00;101043.16;5154492;27;20441;-71
2023/06/16 00:39:58;;;;;;;12.23;4.80;;;;;;;17.11;100.00;101042.34;5154221;27;20935;-72
2023/06/16 00:42:25;;;;;;;8.83;4.50;;;;;;;16.98;100.00;101043.41;5153990;27;20475;-72
2023/06/16 00:44:51;;;;;;;11.00;4.73;;;;;;;16.98;100.00;101037.94;5154332;27;20482;-72
2023/06/16 00:47:19;;;;;;;8.03;4.27;;;;;;;17.00;100.00;101038.38;5154022;27;21012;-72
2023/06/16 00:49:46;;;;;;;10.00;3.80;;;;;;;17.00;100.00;101035.66;5154394;27;20492;-72
2023/06/16 00:52:15;;;;;;;10.60;4.17;;;;;;;17.02;100.00;101038.88;5154074;27;20975;-72
2023/06/16 00:54:42;;;;;;;9.03;4.50;;;;;;;17.00;100.00;101035.66;5153884;27;20906;-71
2023/06/16 00:57:08;;;;;;;11.37;4.93;;;;;;;16.98;100.00;101032.47;5154043;27;20444;-71
2023/06/16 00:59:35;;;;;;;15.27;4.87;;;;;;;16.93;100.00;101035.41;5153963;27;20501;-72
2023/06/16 01:02:02;;;;;;;10.83;4.07;;;;;;;16.87;100.00;101021.91;5154303;27;20443;-71
2023/06/16 01:04:31;;;;;;;9.97;4.47;;;;;;;16.85;100.00;101024.16;5154180;27;20485;-71
2023/06/16 01:07:09;;;;;;;9.33;4.40;;;;;;;16.91;100.00;101022.06;5153884;27;20837;-71
2023/06/16 01:09:48;;;;;;;9.33;4.73;;;;;;;16.95;100.00;101025.72;5153889;27;20422;-73
2023/06/16 01:12:23;;;;;;;10.40;4.73;;;;;;;16.96;100.00;101024.59;5157818;27;20418;-71
2023/06/16 01:14:58;;;;;;;7.83;3.23;;;;;;;16.90;100.00;101014.97;5157433;27;20530;-71
2023/06/16 01:17:28;;;;;;;8.97;4.23;;;;;;;16.90;100.00;101013.03;5157522;27;20962;-72
2023/06/16 01:20:09;;;;;;;8.27;4.40;;;;;;;16.85;100.00;101018.69;5157787;27;20438;-71
2023/06/16 01:22:53;;;;;;;10.40;4.97;;;;;;;16.82;100.00;101008.44;5157448;27;20916;-71
2023/06/16 01:25:23;;;;;;;8.63;4.20;;;;;;;16.78;100.00;101012.97;5157268;27;20468;-71
2023/06/16 01:27:52;;;;;;;9.20;4.40;;;;;;;16.79;100.00;101009.09;5157799;27;20434;-72
2023/06/16 01:30:21;;;;;;;15.83;5.07;;;;;;;16.75;100.00;101013.63;5157503;27;20498;-69
2023/06/16 01:32:52;;;;;;;18.97;3.80;;;;;;;16.79;100.00;101011.84;5157487;27;20442;-69
2023/06/16 01:35:20;;;;;;;7.53;3.80;;;;;;;16.73;100.00;101006.88;5157224;27;20513;-69
2023/06/16 01:37:48;;;;;;;10.63;3.70;;;;;;;16.75;100.00;101010.88;5157360;27;20608;-69
2023/06/16 01:40:15;;;;;;;9.07;4.30;;;;;;;16.74;100.00;101006.56;5157301;27;20532;-69
2023/06/16 01:42:44;;;;;;;11.17;3.67;;;;;;;16.73;100.00;101010.41;5157165;27;20459;-68
2023/06/16 01:45:12;;;;;;;10.53;4.20;;;;;;;16.65;100.00;101005.78;5157154;27;20565;-69
2023/06/16 01:47:39;;;;;;;8.70;3.57;;;;;;;16.67;100.00;101006.25;5156984;27;20449;-69
2023/06/16 01:50:06;;;;;;;7.97;4.00;;;;;;;16.71;100.00;101004.44;5156810;27;20477;-69
2023/06/16 01:52:33;;;;;;;11.37;4.60;;;;;;;16.64;100.00;101001.44;5157407;27;20429;-69
2023/06/16 01:55:00;;;;;;;8.50;4.33;;;;;;;16.71;100.00;101004.44;5156637;27;20478;-70
2023/06/16 01:57:27;;;;;;;13.27;4.60;;;;;;;16.72;100.00;101000.59;5157270;27;20520;-69
2023/06/16 02:00:01;;;;;;;9.57;4.77;;;;;;;16.71;100.00;100996.25;5156983;27;20578;-69
2023/06/16 02:02:30;;;;;;;9.63;4.50;;;;;;;16.72;100.00;100989.66;5156992;27;20504;-69
2023/06/16 02:05:00;;;;;;;14.53;5.70;;;;;;;16.71;100.00;100992.72;5156542;27;20884;-69
2023/06/16 02:07:32;;;;;;;14.87;5.00;;;;;;;16.71;100.00;100987.25;5156850;27;20426;-68
2023/06/16 02:10:00;;;;;;;10.00;4.53;;;;;;;16.72;100.00;100997.03;5156843;27;20428;-69
2023/06/16 02:12:28;;;;;;;10.17;4.30;;;;;;;16.77;100.00;100989.47;5156766;27;20529;-69
2023/06/16 02:14:56;;;;;;;8.27;4.03;;;;;;;16.74;100.00;100990.16;5156255;27;20486;-69
2023/06/16 02:17:26;;;;;;;12.70;5.20;;;;;;;16.72;100.00;100984.19;5156651;27;20468;-69
2023/06/16 02:19:53;;;;;;;9.60;4.50;;;;;;;16.61;100.00;100982.97;5156691;27;20425;-69
2023/06/16 02:22:20;;;;;;;10.83;5.53;;;;;;;16.63;100.00;100975.22;5156080;27;20444;-69
2023/06/16 02:24:47;;;;;;;11.73;4.90;;;;;;;16.62;100.00;100982.63;5156105;27;21057;-69
2023/06/16 02:27:14;;;;;;;10.47;5.60;;;;;;;16.65;100.00;100976.50;5156408;27;20507;-69
2023/06/16 02:29:41;;;;;;;10.87;5.10;;;;;;;16.60;100.00;100978.59;5156401;27;20448;-69
2023/06/16 02:32:09;;;;;;;18.53;5.80;;;;;;;16.56;100.00;100983.16;5156377;27;20441;-69
2023/06/16 02:34:36;;;;;;;9.47;4.77;;;;;;;16.61;100.00;100981.03;5156150;27;20513;-69
2023/06/16 02:37:02;;;;;;;13.17;4.87;;;;;;;16.61;100.00;100977.50;5156271;27;20473;-69
2023/06/16 02:39:29;;;;;;;8.40;4.40;;;;;;;16.51;100.00;100975.13;5156157;27;20498;-69
2023/06/16 02:41:56;;;;;;;12.33;5.80;;;;;;;16.54;100.00;100977.19;5155829;27;20528;-68
2023/06/16 02:44:22;;;;;;;13.27;5.37;;;;;;;16.50;100.00;100979.78;5155718;27;20516;-69
2023/06/16 02:46:49;;;;;;;12.30;6.07;;;;;;;16.48;100.00;100970.34;5156092;27;20517;-69
2023/06/16 02:49:17;;;;;;;13.43;6.20;;;;;;;16.57;100.00;100979.28;5155942;27;21007;-69
2023/06/16 02:51:44;;;;;;;10.07;5.10;;;;;;;16.53;100.00;100976.41;5155991;27;20437;-69
2023/06/16 02:54:10;;;;;;;11.53;5.10;;;;;;;16.53;100.00;100973.66;5155793;27;20482;-69
2023/06/16 02:56:37;;;;;;;17.60;5.03;;;;;;;16.49;100.00;100972.72;5155945;27;20516;-69
2023/06/16 02:59:03;;;;;;;9.77;4.90;;;;;;;16.47;100.00;100976.91;5155847;27;20433;-69
2023/06/16 03:01:30;;;;;;;10.90;4.87;;;;;;;16.49;100.00;100972.72;5155758;27;20433;-69
2023/06/16 03:03:58;;;;;;;12.17;5.33;;;;;;;16.51;100.00;100975.13;5155729;27;20597;-69
2023/06/16 03:06:29;;;;;;;12.67;6.37;;;;;;;16.39;100.00;100970.38;5155610;27;20442;-69
2023/06/16 03:08:56;;;;;;;12.07;5.20;;;;;;;16.36;100.00;100971.03;5155714;27;20429;-69
2023/06/16 03:11:23;;;;;;;9.70;4.60;;;;;;;16.45;100.00;100971.00;5155237;27;20438;-69
2023/06/16 03:13:49;;;;;;;10.63;5.43;;;;;;;16.44;100.00;100969.41;5155309;27;20434;-69
2023/06/16 03:16:16;;;;;;;14.53;5.30;;;;;;;16.45;100.00;100976.47;5155132;27;20968;-69
2023/06/16 03:18:43;;;;;;;11.27;5.20;;;;;;;16.46;100.00;100972.59;5155518;27;20442;-69
2023/06/16 03:21:10;;;;;;;10.57;5.20;;;;;;;16.39;100.00;100979.38;5155353;27;20524;-69
2023/06/16 03:23:38;;;;;;;9.57;4.57;;;;;;;16.45;100.00;100982.72;5155323;27;20466;-69
2023/06/16 03:26:04;;;;;;;11.53;5.10;;;;;;;16.36;100.00;100968.31;5156585;27;20548;-69
2023/06/16 03:28:31;;;;;;;10.10;4.70;;;;;;;16.36;100.00;100974.56;5155214;27;20430;-69
2023/06/16 03:30:58;;;;;;;10.93;5.70;;;;;;;16.35;100.00;100967.50;5154916;27;20438;-69
2023/06/16 03:33:24;;;;;;;11.27;4.83;;;;;;;16.30;100.00;100970.44;5154387;27;20504;-68
2023/06/16 03:35:51;;;;;;;8.53;3.97;;;;;;;16.25;100.00;100970.63;5154978;27;20482;-69
2023/06/16 03:38:17;;;;;;;9.43;4.80;;;;;;;16.32;100.00;100973.63;5155091;27;20433;-69
2023/06/16 03:40:45;;;;;;;11.67;5.27;;;;;;;16.32;100.00;100967.38;5155084;27;20525;-69
2023/06/16 03:43:12;;;;;;;9.17;4.80;;;;;;;16.27;100.00;100971.09;5154892;27;20840;-68
2023/06/16 03:45:38;;;;;;;17.33;6.03;;;;;;;16.24;100.00;100966.28;5154835;27;20489;-69
2023/06/16 03:48:07;;;;;;;11.57;5.20;;;;;;;16.29;100.00;100973.47;5154922;27;20521;-68
2023/06/16 03:50:34;;;;;;;8.83;4.00;;;;;;;16.25;100.00;100967.91;5154766;27;20528;-69
2023/06/16 03:53:00;;;;;;;10.13;4.80;;;;;;;16.28;100.00;100975.41;5154936;27;20879;-69
2023/06/16 03:55:28;;;;;;;10.40;4.93;;;;;;;16.22;100.00;100975.94;5154373;27;20882;-69
2023/06/16 03:57:56;;;;;;;10.70;5.67;;;;;;;16.19;100.00;100979.31;5154869;27;20867;-69
2023/06/16 04:00:23;;;;;;;12.20;5.03;;;;;;;16.17;100.00;100967.94;5155083;27;20438;-69
2023/06/16 04:02:50;;;;;;;12.60;4.83;;;;;;;16.17;100.00;100974.19;5154531;27;21007;-69
2023/06/16 04:05:17;;;;;;;10.20;4.40;;;;;;;16.19;100.00;100984.78;5154706;27;20514;-69
2023/06/16 04:07:44;;;;;;;9.50;4.60;;;;;;;16.20;100.00;100984.47;5155033;27;20485;-69
2023/06/16 04:10:11;;;;;;;10.00;4.63;;;;;;;16.20;100.00;100980.94;5154432;27;20886;-69
2023/06/16 04:12:38;;;;;;;8.97;4.47;;;;;;;16.15;100.00;100984.66;5154710;27;20460;-69
2023/06/16 04:15:06;;;;;;;10.87;5.00;;;;;;;16.19;100.00;100985.59;5154587;27;20554;-69
2023/06/16 04:17:33;;;;;;;10.40;4.80;;;;;;;16.25;100.00;100987.03;5154674;27;20819;-69
2023/06/16 04:20:00;;;;;;;9.70;4.67;;;;;;;16.28;100.00;100986.34;5154318;27;20533;-69
2023/06/16 04:22:26;;;;;;;14.00;4.47;;;;;;;16.29;100.00;100984.41;5154624;27;20494;-69
2023/06/16 04:24:53;;;;;;;13.10;6.13;;;;;;;16.26;100.00;100985.88;5154224;27;21048;-69
2023/06/16 04:27:23;;;;;;;9.70;4.60;;;;;;;16.31;100.00;100979.44;5154296;27;20438;-69
2023/06/16 04:29:50;;;;;;;10.40;5.70;;;;;;;16.35;100.00;100983.13;5154690;27;20620;-69
2023/06/16 04:32:18;;;;;;;8.93;4.30;;;;;;;16.37;100.00;100978.91;5154228;27;20467;-69
2023/06/16 04:34:45;;;;;;;15.27;5.00;;;;;;;16.50;100.00;100989.94;5154422;27;20511;-69
2023/06/16 04:37:13;;;;;;;9.73;4.03;;;;;;;16.54;100.00;100988.16;5154471;27;20520;-72
2023/06/16 04:39:40;;;;;;;10.80;4.57;;;;;;;16.49;100.00;100978.19;5154454;27;20453;-71
2023/06/16 04:42:08;;;;;;;9.90;4.10;;;;;;;16.53;100.00;100983.81;5154354;27;20472;-72
2023/06/16 04:44:34;;;;;;;11.87;4.90;;;;;;;16.50;100.00;100984.47;5155069;27;20469;-72
2023/06/16 04:47:01;;;;;;;10.73;4.47;;;;;;;16.46;100.00;100984.31;5158103;27;20442;-72
2023/06/16 04:49:29;;;;;;;13.73;4.03;;;;;;;16.36;100.00;100980.03;5158355;27;20782;-71
2023/06/16 04:51:56;;;;;;;10.10;5.00;;;;;;;16.44;100.00;100977.59;5158308;27;20441;-72
2023/06/16 04:54:22;;;;;;;13.53;4.90;;;;;;;16.52;100.00;100979.47;5157813;27;20453;-72
2023/06/16 04:56:49;;;;;;;8.37;4.20;;;;;;;16.49;100.00;100970.00;5158410;27;20696;-72
2023/06/16 04:59:16;;;;;;;10.20;4.70;;;;;;;16.50;100.00;100968.84;5158063;27;20533;-72
2023/06/16 05:01:42;;;;;;;11.77;5.03;;;;;;;16.48;100.00;100964.88;5158137;27;20521;-72
2023/06/16 05:04:09;;;;;;;12.40;5.17;;;;;;;16.48;100.00;100964.88;5157676;27;20522;-71
2023/06/16 05:06:37;;;;;;;14.33;5.70;;;;;;;16.39;100.00;100960.25;5158027;27;20459;-70
2023/06/16 05:09:05;;;;;;;9.07;4.30;;;;;;;16.43;100.00;100965.88;5157940;27;20527;-70
2023/06/16 05:11:31;;;;;;;13.60;4.90;;;;;;;16.45;100.00;100960.06;5157919;27;20525;-70
2023/06/16 05:13:58;;;;;;;10.90;4.80;;;;;;;16.46;100.00;100961.66;5157827;27;20449;-70
2023/06/16 05:16:24;;;;;;;15.10;4.90;;;;;;;16.44;100.00;100964.72;5157434;27;20477;-70
2023/06/16 05:18:51;;;;;;;10.23;4.23;;;;;;;16.48;100.00;100965.66;5157982;27;20529;-70
2023/06/16 05:21:24;;;;;;;9.80;4.00;;;;;;;16.47;100.00;100964.06;5157624;27;20532;-70
2023/06/16 05:23:52;;;;;;;12.53;4.20;;;;;;;16.25;100.00;100962.44;5157680;27;20436;-70
2023/06/16 05:26:20;;;;;;;12.47;3.80;;;;;;;16.01;100.00;100968.47;5157675;27;20473;-71
2023/06/16 05:28:47;;;;;;;8.40;3.90;;;;;;;15.95;100.00;100963.53;5157572;27;20469;-71
2023/06/16 05:31:13;;;;;;;7.67;4.00;;;;;;;15.79;100.00;100960.53;5157523;27;20444;-71
2023/06/16 05:33:40;;;;;;;9.93;4.67;;;;;;;15.68;100.00;100965.56;5157550;27;20440;-72
2023/06/16 05:36:06;;;;;;;10.70;4.30;;;;;;;15.60;100.00;100960.88;5157341;27;20576;-71
2023/06/16 05:38:33;;;;;;;9.40;4.57;;;;;;;15.66;100.00;100962.34;5157418;27;20525;-70
2023/06/16 05:41:01;;;;;;;8.77;3.90;;;;;;;15.72;100.00;100963.78;5157597;27;20437;-70
2023/06/16 05:43:28;;;;;;;10.10;4.17;;;;;;;15.75;100.00;100967.78;5156859;27;20995;-70
2023/06/16 05:45:54;;;;;;;10.00;4.20;;;;;;;15.70;100.00;100957.81;5157185;27;20472;-70
2023/06/16 05:48:21;;;;;;;8.20;4.20;;;;;;;15.68;100.00;100968.28;5157160;27;20448;-70
2023/06/16 05:50:48;;;;;;;8.50;4.07;;;;;;;15.66;100.00;100967.00;5157179;27;20525;-70
2023/06/16 05:53:14;;;;;;;11.57;4.33;;;;;;;15.66;100.00;100967.00;5156765;27;20856;-70
2023/06/16 05:55:41;;;;;;;12.17;4.87;;;;;;;15.61;100.00;100966.00;5156021;27;20854;-70
2023/06/16 05:58:09;;;;;;;8.57;3.93;;;;;;;15.61;100.00;100970.66;5156788;27;20521;-70
2023/06/16 06:00:35;;;;;;;11.17;4.70;;;;;;;15.64;100.00;100970.06;5157252;27;20544;-71
2023/06/16 06:03:04;;;;;;;10.00;4.60;;;;;;;15.55;100.00;100961.88;5156879;27;20505;-71
2023/06/16 06:05:30;;;;;;;11.03;5.20;;;;;;;15.57;100.00;100958.78;5156826;27;20468;-70
2023/06/16 06:07:57;;;;;;;9.73;4.40;;;;;;;15.55;100.00;100966.53;5156590;27;20477;-69
2023/06/16 06:10:24;;;;;;;17.57;4.70;;;;;;;15.48;100.00;100966.22;5156790;27;20480;-72
2023/06/16 06:12:50;;;;;;;15.90;4.57;;;;;;;15.55;100.00;100966.53;5156895;27;20466;-71
2023/06/16 06:15:18;;;;;;;13.03;4.73;;;;;;;15.44;100.00;100962.53;5156604;27;20484;-70
2023/06/16 06:17:45;;;;;;;11.90;5.00;;;;;;;15.42;100.00;100972.97;5156327;27;20954;-71
2023/06/16 06:20:12;;;;;;;11.97;4.97;;;;;;;15.50;100.00;100963.97;5156527;27;20513;-71
2023/06/16 06:22:39;;;;;;;12.77;5.60;;;;;;;15.53;100.00;100972.28;5156226;27;20524;-71
2023/06/16 06:25:07;;;;;;;10.87;4.60;;;;;;;15.57;100.00;100975.97;5156111;27;20457;-69
2023/06/16 06:27:33;;;;;;;11.90;5.40;;;;;;;15.58;100.00;100976.78;5156502;27;20438;-69
2023/06/16 06:30:00;;;;;;;9.63;4.30;;;;;;;15.56;100.00;100968.13;5156502;27;20494;-70
2023/06/16 06:32:28;;;;;;;10.47;4.33;;;;;;;15.59;100.00;100981.13;5156398;27;20480;-70
2023/06/16 06:34:54;;;;;;;10.73;4.73;;;;;;;15.63;100.00;100985.63;5156234;27;20540;-70
2023/06/16 06:37:26;;;;;;;9.60;4.80;;;;;;;15.66;100.00;100983.38;5156175;27;20810;-69
2023/06/16 06:39:53;;;;;;;13.03;5.83;;;;;;;15.67;100.00;100983.06;5155928;27;20508;-69
2023/06/16 06:42:20;;;;;;;10.80;5.60;;;;;;;15.59;100.00;100983.88;5155858;27;20461;-70
2023/06/16 06:44:46;;;;;;;10.43;4.57;;;;;;;15.59;100.00;100979.19;5155941;27;20462;-71
2023/06/16 06:47:13;;;;;;;10.67;5.60;;;;;;;15.58;100.00;100985.81;5156068;27;20851;-66
2023/06/16 06:49:41;;;;;;;11.03;5.43;;;;;;;15.47;100.00;100986.44;5155908;27;20447;-69
2023/06/16 06:52:08;;;;;;;10.73;4.90;;;;;;;15.48;100.00;100996.25;5155937;27;20438;-69
2023/06/16 06:54:35;;;;;;;10.40;4.73;;;;;;;15.53;100.00;100991.41;5155496;27;20544;-68
2023/06/16 06:57:01;;;;;;;12.13;4.90;;;;;;;15.62;100.00;100994.13;5155795;27;20526;-69
2023/06/16 06:59:28;;;;;;;20.40;5.63;;;;;;;15.67;100.00;100999.47;5155521;27;20440;-68
2023/06/16 07:01:55;;;;;;;13.43;6.00;;;;;;;15.65;100.00;100998.97;5155433;27;20492;-69
2023/06/16 07:04:21;;;;;;;14.47;7.07;;;;;;;15.55;100.00;100996.56;5155744;27;20458;-68
2023/06/16 07:06:49;;;;;;;9.20;4.43;;;;;;;15.60;100.00;100999.13;5155725;27;20448;-68
2023/06/16 07:09:16;;;;;;;13.43;6.80;;;;;;;15.72;100.00;101004.75;5155516;27;20494;-68
2023/06/16 07:11:43;;;;;;;11.13;5.90;;;;;;;15.76;100.00;101008.44;5155306;27;20978;-68
2023/06/16 07:14:10;;;;;;;10.90;6.03;;;;;;;15.82;100.00;101004.38;5155555;27;20866;-68
2023/06/16 07:16:37;;;;;;;13.80;6.57;;;;;;;15.91;100.00;101009.03;5155527;27;20578;-68
2023/06/16 07:19:04;;;;;;;35.07;7.50;;;;;;;15.99;100.00;101008.19;5155170;27;20928;-68
2023/06/16 07:21:31;;;;;;;13.60;5.83;;;;;;;16.03;100.00;101009.16;5155521;27;20429;-68
2023/06/16 07:23:59;;;;;;;12.87;6.57;;;;;;;16.06;100.00;101006.53;5155102;27;20962;-69
2023/06/16 07:26:26;;;;;;;11.90;5.97;;;;;;;16.20;100.00;101009.06;5155421;27;20442;-68
2023/06/16 07:28:52;;;;;;;13.27;7.10;;;;;;;16.31;100.00;101018.50;5155339;27;20430;-68
2023/06/16 07:31:19;;;;;;;13.57;7.07;;;;;;;16.23;100.00;101008.41;5155026;27;20477;-68
2023/06/16 07:33:46;;;;;;;11.30;5.60;;;;;;;16.34;100.00;101012.38;5155259;27;20545;-68
2023/06/16 07:36:12;;;;;;;12.70;6.93;;;;;;;16.60;100.00;101008.69;5154656;27;20955;-68
2023/06/16 07:38:39;;;;;;;13.47;6.33;;;;;;;16.84;100.00;101011.63;5154863;27;20488;-68
2023/06/16 07:41:07;;;;;;;12.13;6.40;;;;;;;17.17;100.00;101012.81;5154831;27;20488;-68
2023/06/16 07:43:34;;;;;;;10.33;5.43;;;;;;;17.35;100.00;101006.88;5154931;27;20457;-68
2023/06/16 07:46:00;;;;;;;13.00;6.00;;;;;;;17.47;100.00;101010.78;5154741;27;20454;-69
2023/06/16 07:48:28;;;;;;;11.67;6.30;;;;;;;17.56;100.00;101000.53;5155068;27;20447;-69
2023/06/16 07:50:55;;;;;;;12.13;5.00;;;;;;;17.44;100.00;101003.22;5154926;27;20529;-70
2023/06/16 07:53:21;;;;;;;13.50;5.67;;;;;;;17.39;100.00;100998.78;5154560;27;20926;-70
2023/06/16 07:55:48;;;;;;;12.50;6.30;;;;;;;17.54;100.00;100994.63;5154798;27;20492;-70
2023/06/16 07:58:16;;;;;;;12.03;5.13;;;;;;;17.61;100.00;101000.31;5154858;27;20440;-70
2023/06/16 08:00:43;;;;;;;12.60;4.83;;;;;;;17.56;100.00;101000.53;5154902;27;20437;-70
2023/06/16 08:03:10;;;;;;;11.23;5.30;;;;;;;17.39;100.00;100999.56;5154822;27;20516;-69
2023/06/16 08:05:36;;;;;;;9.80;4.87;;;;;;;17.07;100.00;101003.88;5154484;27;20493;-70
2023/06/16 08:08:03;;;;;;;10.23;4.80;;;;;;;16.84;100.00;101006.16;5154804;27;20494;-70
2023/06/16 08:10:30;;;;;;;9.50;4.30;;;;;;;16.77;100.00;101000.41;5154510;27;20445;-69
2023/06/16 08:12:56;;;;;;;10.57;4.73;;;;;;;16.69;100.00;101009.47;5154766;27;20473;-69
2023/06/16 08:15:24;;;;;;;11.87;4.27;;;;;;;16.61;100.00;101007.59;5154593;27;20489;-69
2023/06/16 08:17:51;;;;;;;9.40;4.63;;;;;;;16.50;100.00;101001.66;5154782;27;20448;-69
2023/06/16 08:20:17;;;;;;;9.83;4.10;;;;;;;16.45;100.00;101012.81;5156873;27;20955;-69
2023/06/16 08:22:44;;;;;;;11.27;4.63;;;;;;;16.42;100.00;100998.97;5158933;27;20429;-69
2023/06/16 08:25:11;;;;;;;8.90;3.87;;;;;;;16.39;100.00;101008.66;5158804;27;20548;-69
2023/06/16 08:27:37;;;;;;;8.80;4.37;;;;;;;16.36;100.00;101007.38;5158511;27;20975;-69
2023/06/16 08:30:05;;;;;;;7.40;2.97;;;;;;;16.27;100.00;101009.34;5158803;27;20438;-69
2023/06/16 08:32:33;;;;;;;9.97;4.27;;;;;;;16.33;100.00;101008.03;5158791;27;20437;-70
2023/06/16 08:35:00;;;;;;;10.63;3.77;;;;;;;16.44;100.00;101013.16;5158610;27;20504;-69
2023/06/16 08:37:27;;;;;;;7.50;3.33;;;;;;;16.39;100.00;101009.47;5158320;27;20485;-70
2023/06/16 08:39:54;;;;;;;8.40;3.30;;;;;;;16.57;100.00;101012.09;5158610;27;20441;-69
2023/06/16 08:42:21;;;;;;;10.60;4.30;;;;;;;16.53;100.00;101022.09;5158554;27;20472;-69
2023/06/16 08:44:48;;;;;;;12.43;4.50;;;;;;;16.59;100.00;101016.09;5158532;27;20464;-69
2023/06/16 08:47:16;;;;;;;9.90;4.00;;;;;;;16.70;100.00;101024.75;5158441;27;20525;-69
2023/06/16 08:49:44;;;;;;;9.10;3.20;;;;;;;16.88;100.00;101017.25;5158854;27;20437;-70
2023/06/16 08:52:16;;;;;;;12.83;4.57;;;;;;;17.12;100.00;101022.03;5158787;27;20482;-70
2023/06/16 08:54:48;;;;;;;10.83;4.33;;;;;;;17.20;100.00;101023.91;5158272;27;20461;-70
2023/06/16 08:57:17;;;;;;;9.03;3.90;;;;;;;17.52;100.00;101019.59;5157893;27;20971;-70
2023/06/16 08:59:47;;;;;;;8.23;3.53;;;;;;;17.65;100.00;101028.66;5158235;27;20520;-70
2023/06/16 09:02:13;;;;;;;8.10;4.10;;;;;;;17.67;100.00;101029.13;5158070;27;20441;-70
2023/06/16 09:04:41;;;;;;;11.87;3.70;;;;;;;17.47;100.00;101022.53;5157859;27;20529;-71
2023/06/16 09:07:10;;;;;;;7.27;2.97;;;;;;;17.63;100.00;101020.78;5158044;27;20457;-70
2023/06/16 09:09:38;;;;;;;7.10;2.50;;;;;;;17.63;100.00;101017.25;5158011;27;20448;-70
2023/06/16 09:12:07;;;;;;;7.73;2.87;;;;;;;17.88;100.00;101024.44;5157990;27;20532;-70
2023/06/16 09:14:36;;;;;;;7.10;2.60;;;;;;;18.27;100.00;101013.94;5157848;27;20457;-70
2023/06/16 09:17:05;;;;;;;8.50;2.97;;;;;;;18.63;100.00;101020.56;5157786;27;20477;-70
2023/06/16 09:19:34;;;;;;;6.93;2.90;;;;;;;18.86;100.00;101016.22;5157861;27;20437;-70
2023/06/16 09:22:01;;;;;;;10.23;3.60;;;;;;;18.73;100.00;101025.63;5157945;27;20441;-70
2023/06/16 09:24:29;;;;;;;8.63;3.07;;;;;;;18.56;100.00;101028.56;5157701;27;20465;-70
2023/06/16 09:26:59;;;;;;;7.33;2.80;;;;;;;18.45;100.00;101030.16;5157371;27;20954;-70
2023/06/16 09:29:26;;;;;;;8.80;2.60;;;;;;;18.28;100.00;101025.69;5157309;27;20536;-70
2023/06/16 09:31:53;;;;;;;10.40;2.73;;;;;;;18.22;100.00;101029.81;5156359;27;20516;-70
2023/06/16 09:34:20;;;;;;;7.50;3.07;;;;;;;18.23;100.00;101031.41;5157428;27;20460;-70
2023/06/16 09:36:47;;;;;;;6.60;2.70;;;;;;;18.18;100.00;101034.38;5157125;27;21033;-70
2023/06/16 09:39:24;;;;;;;7.50;2.80;;;;;;;18.17;100.00;101035.53;5157423;27;20513;-70
2023/06/16 09:41:53;;;;;;;7.07;2.83;;;;;;;18.07;100.00;101036.78;5157096;27;20494;-70
2023/06/16 09:44:20;;;;;;;7.40;2.77;;;;;;;18.08;99.71;101035.63;5157151;27;20568;-70
2023/06/16 09:46:49;;;;;;;6.40;2.50;;;;;;;18.03;100.00;101039.41;5157166;27;20537;-70
2023/06/16 09:49:22;;;;;;;7.20;2.40;;;;;;;18.08;100.00;101038.38;5157144;27;20465;-70
2023/06/16 09:51:53;;;;;;;6.87;2.83;;;;;;;18.05;100.00;101036.31;5157124;27;20453;-70
2023/06/16 09:54:21;;;;;;;7.07;2.87;;;;;;;18.13;100.00;101041.69;5156928;27;20994;-70
2023/06/16 09:56:48;;;;;;;9.13;2.50;;;;;;;18.30;98.44;101037.94;5156844;27;20580;-70
2023/06/16 09:59:17;;;;;;;13.40;3.20;;;;;;;18.55;98.76;101038.75;5157006;27;20442;-70
2023/06/16 10:01:47;;;;;;;7.77;3.27;;;;;;;18.85;97.57;101025.56;5157091;27;20457;-70
2023/06/16 10:04:16;;;;;;;10.70;3.20;;;;;;;18.87;94.93;101028.00;5156484;27;21091;-70
2023/06/16 10:06:48;;;;;;;6.57;2.57;;;;;;;18.82;96.31;101022.75;5156927;27;20476;-70
2023/06/16 10:09:17;;;;;;;7.47;2.90;;;;;;;18.78;93.38;101036.34;5156704;27;20525;-70
2023/06/16 10:11:47;;;;;;;6.90;2.63;;;;;;;18.89;94.48;101028.44;5156654;27;20449;-71
2023/06/16 10:14:18;;;;;;;6.40;2.33;;;;;;;18.93;95.40;101025.81;5156391;27;21002;-71
2023/06/16 10:16:49;;;;;;;6.70;2.17;;;;;;;18.86;96.83;101023.66;5156917;27;20465;-70
2023/06/16 10:19:19;;;;;;;6.90;2.30;;;;;;;18.72;91.27;101026.75;5156513;27;20438;-71
2023/06/16 10:21:46;;;;;;;7.33;3.00;;;;;;;18.62;92.06;101022.50;5156525;27;20463;-70
2023/06/16 10:24:14;;;;;;;7.93;2.30;;;;;;;18.84;92.62;101015.75;5156485;27;20506;-70
2023/06/16 10:26:41;;;;;;;7.20;2.60;;;;;;;18.97;91.05;101027.50;5156261;27;20534;-69
2023/06/16 10:29:09;;;;;;;8.80;3.70;;;;;;;19.01;89.54;101027.63;5156090;27;20454;-70
2023/06/16 10:31:39;;;;;;;8.90;2.93;;;;;;;19.00;88.83;101031.50;5156102;27;20461;-72
2023/06/16 10:34:06;;;;;;;7.37;3.27;;;;;;;19.14;88.00;101029.19;5156521;27;20841;-70
2023/06/16 10:36:36;;;;;;;6.77;3.00;;;;;;;19.19;86.26;101028.94;5156080;27;20481;-70
2023/06/16 10:39:08;;;;;;;6.90;2.30;;;;;;;19.15;88.03;101025.28;5156361;27;20437;-70
2023/06/16 10:41:35;;;;;;;6.30;2.50;;;;;;;18.83;89.11;101027.09;5156259;27;20512;-70
2023/06/16 10:44:27;;;;;;;7.57;2.90;;;;;;;18.91;90.09;101026.16;5155645;27;20496;-70
2023/06/16 10:47:28;;;;;;;7.03;2.67;;;;;;;19.15;88.41;101034.31;5156170;27;20438;-70
2023/06/16 10:49:57;;;;;;;8.03;3.13;;;;;;;19.37;89.46;101035.72;5100798;27;20449;-70
2023/06/16 10:52:52;;;;;;;7.40;2.90;;;;;;;19.46;88.04;101026.53;5155933;27;20439;-70
2023/06/16 10:55:31;;;;;;;6.87;2.57;;;;;;;19.14;86.24;101027.22;5146285;27;20564;-70
2023/06/16 10:58:19;;;;;;;6.93;3.00;;;;;;;18.90;89.01;101032.78;5155866;27;20465;-70
2023/06/16 11:00:57;;;;;;;7.67;2.93;;;;;;;18.74;87.55;101034.66;5156360;27;20466;-70
2023/06/16 11:03:29;;;;;;;8.27;3.07;;;;;;;18.58;86.97;101026.28;5155875;27;20798;-70
2023/06/16 11:06:00;;;;;;;10.20;2.57;;;;;;;18.41;87.77;101027.31;5155584;27;20489;-70
2023/06/16 11:08:28;;;;;;;7.33;2.87;;;;;;;18.34;89.18;101033.38;5155621;27;20450;-70
2023/06/16 11:10:58;;;;;;;7.43;3.10;;;;;;;18.32;89.18;101023.88;5155761;27;20469;-70
2023/06/16 11:13:32;;;;;;;8.23;2.90;;;;;;;18.49;89.59;101026.38;5155532;27;20448;-70
2023/06/16 11:16:00;;;;;;;8.40;3.27;;;;;;;18.59;87.90;101027.88;5155306;27;20964;-71
2023/06/16 11:18:31;;;;;;;6.60;3.17;;;;;;;18.59;88.18;101023.22;5155209;27;20883;-70